createdAt,value
2022-12-23T00:01:19.646Z,100456.31
2022-12-23T00:03:46.420Z,100463.56
2022-12-23T00:06:15.750Z,100465.38
2022-12-23T00:08:43.265Z,100463.56
2022-12-23T00:11:18.924Z,100464.34
2022-12-23T00:14:04.638Z,100463.38
2022-12-23T00:16:31.411Z,100476.13
2022-12-23T00:18:57.952Z,100476.94
2022-12-23T00:21:24.471Z,100476.94
2022-12-23T00:23:51.884Z,100492.88
2022-12-23T00:26:24.617Z,100487.84
2022-12-23T00:28:51.913Z,100493.09
2022-12-23T00:31:19.969Z,100494.91
2022-12-23T00:33:48.824Z,100492.44
2022-12-23T00:36:24.602Z,100487.19
2022-12-23T00:39:10.556Z,100496.88
2022-12-23T00:41:56.224Z,100504.78
2022-12-23T00:44:23.183Z,100506.75
2022-12-23T00:46:49.947Z,100501.50
2022-12-23T00:49:37.032Z,100503.53
2022-12-23T00:52:05.312Z,100500.91
2022-12-23T00:54:34.616Z,100502.72
2022-12-23T00:57:01.718Z,100504.69
2022-12-23T00:59:28.203Z,100505.50
2022-12-23T01:02:13.417Z,100511.75
2022-12-23T01:04:58.684Z,100510.16
2022-12-23T01:07:26.010Z,100523.91
2022-12-23T01:09:52.636Z,100518.84
2022-12-23T01:12:19.741Z,100513.59
2022-12-23T01:14:46.389Z,100520.66
2022-12-23T01:17:13.226Z,100515.75
2022-12-23T01:19:39.982Z,100518.38
2022-12-23T01:22:06.530Z,100522.84
2022-12-23T01:24:33.171Z,100526.28
2022-12-23T01:27:00.350Z,100534.97
2022-12-23T01:29:26.973Z,100540.22
2022-12-23T01:31:53.626Z,100538.59
2022-12-23T01:34:20.226Z,100546.63
2022-12-23T01:36:46.798Z,100547.44
2022-12-23T01:39:13.384Z,100548.28
2022-12-23T01:41:58.340Z,100557.16
2022-12-23T01:44:51.078Z,100552.91
2022-12-23T01:47:33.911Z,100563.22
2022-12-23T01:50:07.255Z,100565.84
2022-12-23T01:52:38.513Z,100564.06
2022-12-23T01:55:05.607Z,100558.97
2022-12-23T01:57:32.531Z,100569.47
2022-12-23T02:00:17.537Z,100569.81
2022-12-23T02:03:03.174Z,100582.00
2022-12-23T02:05:29.847Z,100582.81
2022-12-23T02:08:15.595Z,100594.31
2022-12-23T02:11:08.553Z,100590.84
2022-12-23T02:13:38.765Z,100593.47
2022-12-23T02:16:17.459Z,100602.34
2022-12-23T02:19:10.433Z,100604.97
2022-12-23T02:21:46.168Z,100594.66
2022-12-23T02:24:42.197Z,100601.91
2022-12-23T02:27:10.601Z,100609.78
2022-12-23T02:29:36.943Z,100616.66
2022-12-23T02:32:41.653Z,100620.28
2022-12-23T02:35:33.495Z,100628.34
2022-12-23T02:38:10.934Z,100622.47
2022-12-23T02:40:49.729Z,100623.47
2022-12-23T02:43:25.576Z,100631.69
2022-12-23T02:46:01.583Z,100635.31
2022-12-23T02:48:52.975Z,100639.13
2022-12-23T02:51:22.874Z,100645.38
2022-12-23T02:53:54.432Z,100637.84
2022-12-23T02:56:24.261Z,100642.44
2022-12-23T02:59:13.939Z,100650.88
2022-12-23T03:01:43.002Z,100653.84
2022-12-23T03:04:09.741Z,100663.75
2022-12-23T03:06:42.111Z,100661.91
2022-12-23T03:09:09.059Z,100668.53
2022-12-23T03:11:41.670Z,100666.06
2022-12-23T03:14:26.513Z,100669.88
2022-12-23T03:17:40.527Z,100660.91
2022-12-23T03:20:19.510Z,100659.78
2022-12-23T03:22:49.414Z,100659.13
2022-12-23T03:25:31.092Z,100656.84
2022-12-23T03:28:19.260Z,100654.41
2022-12-23T03:30:51.430Z,100654.41
2022-12-23T03:33:28.214Z,100651.44
2022-12-23T03:36:07.351Z,100653.06
2022-12-23T03:38:39.263Z,100656.50
2022-12-23T03:41:10.349Z,100655.69
2022-12-23T03:43:46.739Z,100654.88
2022-12-23T03:46:23.381Z,100659.31
2022-12-23T03:48:54.148Z,100661.13
2022-12-23T03:52:01.636Z,100668.81
2022-12-23T03:54:32.454Z,100665.19
2022-12-23T03:57:03.565Z,100662.41
2022-12-23T03:59:38.035Z,100667.50
2022-12-23T04:02:33.615Z,100663.88
2022-12-23T04:05:21.759Z,100671.75
2022-12-23T04:07:48.213Z,100683.91
2022-12-23T04:10:15.519Z,100683.06
2022-12-23T04:12:42.365Z,100684.69
2022-12-23T04:15:13.090Z,100691.78
2022-12-23T04:17:40.329Z,100703.06
2022-12-23T04:20:07.656Z,100695.38
2022-12-23T04:22:34.207Z,100706.50
2022-12-23T04:25:00.794Z,100710.13
2022-12-23T04:27:27.321Z,100709.94
2022-12-23T04:29:53.851Z,100715.19
2022-12-23T04:32:20.311Z,100715.19
2022-12-23T04:34:46.743Z,100722.88
2022-12-23T04:37:13.307Z,100720.25
2022-12-23T04:39:39.803Z,100709.13
2022-12-23T04:42:06.333Z,100707.31
2022-12-23T04:44:32.904Z,100706.31
2022-12-23T04:46:59.452Z,100707.31
2022-12-23T04:49:26.004Z,100711.56
2022-12-23T04:51:52.519Z,100697.63
2022-12-23T04:54:19.043Z,100697.47
2022-12-23T04:56:45.544Z,100698.28
2022-12-23T04:59:12.168Z,100682.53
2022-12-23T05:01:38.935Z,100686.13
2022-12-23T05:04:05.609Z,100693.03
2022-12-23T05:06:32.132Z,100695.66
2022-12-23T05:08:58.664Z,100699.09
2022-12-23T05:11:25.187Z,100688.75
2022-12-23T05:13:51.687Z,100697.28
2022-12-23T05:16:18.520Z,100700.91
2022-12-23T05:18:45.115Z,100695.66
2022-12-23T05:21:11.873Z,100699.09
2022-12-23T05:23:39.014Z,100703.53
2022-12-23T05:26:05.571Z,100717.47
2022-12-23T05:28:32.158Z,100715.00
2022-12-23T05:31:04.552Z,100720.91
2022-12-23T05:33:33.570Z,100720.09
2022-12-23T05:36:00.686Z,100726.34
2022-12-23T05:38:27.653Z,100727.31
2022-12-23T05:40:54.222Z,100727.31
2022-12-23T05:43:21.214Z,100736.00
2022-12-23T05:45:48.121Z,100742.25
2022-12-23T05:48:14.713Z,100743.06
2022-12-23T05:50:44.219Z,100741.25
2022-12-23T05:53:10.835Z,100742.09
2022-12-23T05:55:37.437Z,100739.47
2022-12-23T05:58:04.032Z,100742.91
2022-12-23T06:00:30.604Z,100737.00
2022-12-23T06:02:57.309Z,100738.81
2022-12-23T06:05:24.017Z,100739.63
2022-12-23T06:07:50.812Z,100734.38
2022-12-23T06:10:17.709Z,100735.38
2022-12-23T06:12:45.453Z,100729.47
2022-12-23T06:15:12.584Z,100726.84
2022-12-23T06:17:39.155Z,100740.78
2022-12-23T06:20:06.518Z,100739.81
2022-12-23T06:22:33.103Z,100722.59
2022-12-23T06:24:59.643Z,100716.72
2022-12-23T06:27:26.184Z,100712.28
2022-12-23T06:29:52.722Z,100715.84
2022-12-23T06:32:19.237Z,100716.88
2022-12-23T06:34:46.720Z,100720.31
2022-12-23T06:37:13.337Z,100714.25
2022-12-23T06:39:39.841Z,100723.91
2022-12-23T06:42:06.512Z,100723.91
2022-12-23T06:44:33.080Z,100714.44
2022-12-23T06:46:59.606Z,100726.75
2022-12-23T06:49:26.393Z,100740.66
2022-12-23T06:51:52.910Z,100739.00
2022-12-23T06:54:19.503Z,100745.91
2022-12-23T06:56:45.962Z,100747.53
2022-12-23T06:59:12.566Z,100752.97
2022-12-23T07:01:40.593Z,100755.59
2022-12-23T07:04:07.573Z,100748.53
2022-12-23T07:06:34.205Z,100752.97
2022-12-23T07:09:01.103Z,100763.47
2022-12-23T07:11:27.573Z,100765.25
2022-12-23T07:13:54.116Z,100760.84
2022-12-23T07:16:20.738Z,100770.88
2022-12-23T07:18:47.321Z,100773.19
2022-12-23T07:21:24.586Z,100776.34
2022-12-23T07:23:55.069Z,100786.03
2022-12-23T07:26:21.631Z,100786.19
2022-12-23T07:28:48.997Z,100780.13
2022-12-23T07:31:15.883Z,100787.38
2022-12-23T07:33:42.665Z,100778.50
2022-12-23T07:36:09.570Z,100789.16
2022-12-23T07:38:36.113Z,100783.94
2022-12-23T07:41:02.548Z,100787.19
2022-12-23T07:43:29.064Z,100779.50
2022-12-23T07:45:59.826Z,100758.84
2022-12-23T07:48:27.462Z,100766.53
2022-12-23T07:51:00.509Z,100763.09
2022-12-23T07:53:27.268Z,100761.28
2022-12-23T07:55:56.626Z,100757.03
2022-12-23T07:58:24.003Z,100759.47
2022-12-23T08:00:50.723Z,100756.22
2022-12-23T08:03:17.468Z,100765.72
2022-12-23T08:05:44.292Z,100761.13
2022-12-23T08:08:10.924Z,100761.13
2022-12-23T08:10:41.401Z,100756.84
2022-12-23T08:13:11.035Z,100755.06
2022-12-23T08:15:37.596Z,100750.78
2022-12-23T08:18:04.271Z,100747.19
2022-12-23T08:20:30.786Z,100751.44
2022-12-23T08:22:57.273Z,100751.09
2022-12-23T08:25:23.783Z,100737.81
2022-12-23T08:27:51.335Z,100741.22
2022-12-23T08:30:18.867Z,100747.13
2022-12-23T08:32:45.427Z,100743.50
2022-12-23T08:35:12.051Z,100737.47
2022-12-23T08:37:38.663Z,100730.59
2022-12-23T08:40:05.724Z,100726.31
2022-12-23T08:42:32.255Z,100719.25
2022-12-23T08:44:58.887Z,100719.09
2022-12-23T08:47:25.336Z,100724.81
2022-12-23T08:49:51.870Z,100729.06
2022-12-23T08:52:18.399Z,100719.38
2022-12-23T08:54:44.999Z,100712.97
2022-12-23T08:57:11.529Z,100712.97
2022-12-23T08:59:38.069Z,100710.00
2022-12-23T09:02:04.718Z,100706.38
2022-12-23T09:04:31.300Z,100706.22
2022-12-23T09:06:57.858Z,100694.72
2022-12-23T09:09:24.714Z,100697.19
2022-12-23T09:11:51.216Z,100690.13
2022-12-23T09:14:17.834Z,100688.94
2022-12-23T09:16:44.354Z,100685.31
2022-12-23T09:19:10.935Z,100679.91
2022-12-23T09:21:37.564Z,100687.59
2022-12-23T09:24:04.334Z,100685.78
2022-12-23T09:26:31.656Z,100680.53
2022-12-23T09:28:58.660Z,100679.56
2022-12-23T09:31:29.239Z,100676.09
2022-12-23T09:33:59.015Z,100682.34
2022-12-23T09:36:25.679Z,100679.56
2022-12-23T09:38:56.950Z,100680.38
2022-12-23T09:41:48.922Z,100677.75
2022-12-23T09:44:33.920Z,100682.81
2022-12-23T09:47:05.697Z,100676.75
2022-12-23T09:49:33.772Z,100671.16
2022-12-23T09:52:03.980Z,100680.66
2022-12-23T09:54:41.129Z,100669.34
2022-12-23T09:57:32.628Z,100656.03
2022-12-23T10:00:15.500Z,100655.22
2022-12-23T10:03:00.779Z,100638.03
2022-12-23T10:05:39.524Z,100627.06
2022-12-23T10:08:27.978Z,100625.41
2022-12-23T10:11:00.317Z,100620.97
2022-12-23T10:13:41.033Z,100610.94
2022-12-23T10:16:12.460Z,100606.53
2022-12-23T10:18:57.819Z,100601.28
2022-12-23T10:21:47.690Z,100596.84
2022-12-23T10:24:23.684Z,100598.28
2022-12-23T10:26:59.983Z,100591.84
2022-12-23T10:29:30.840Z,100589.69
2022-12-23T10:32:16.037Z,100590.34
2022-12-23T10:34:56.368Z,100588.31
2022-12-23T10:37:27.385Z,100596.19
2022-12-23T10:40:22.685Z,100586.34
2022-12-23T10:43:20.821Z,100586.16
2022-12-23T10:45:51.522Z,100577.66
2022-12-23T10:48:20.959Z,100566.16
2022-12-23T10:50:58.444Z,100575.19
2022-12-23T10:53:54.053Z,100577.66
2022-12-23T10:56:21.097Z,100569.59
2022-12-23T10:58:52.734Z,100570.41
2022-12-23T11:01:26.605Z,100559.09
2022-12-23T11:04:01.730Z,100558.06
2022-12-23T11:06:36.856Z,100560.53
2022-12-23T11:09:05.658Z,100552.47
2022-12-23T11:11:54.164Z,100554.09
2022-12-23T11:14:35.839Z,100545.25
2022-12-23T11:17:04.981Z,100538.97
2022-12-23T11:19:31.571Z,100538.97
2022-12-23T11:21:59.758Z,100533.91
2022-12-23T11:24:35.434Z,100537.34
2022-12-23T11:27:07.833Z,100539.78
2022-12-23T11:29:38.702Z,100544.22
2022-12-23T11:32:26.508Z,100529.09
2022-12-23T11:34:55.641Z,100531.72
2022-12-23T11:37:42.120Z,100517.59
2022-12-23T11:40:37.584Z,100511.53
2022-12-23T11:43:12.832Z,100503.66
2022-12-23T11:45:39.711Z,100484.44
2022-12-23T11:48:25.996Z,100468.69
2022-12-23T11:51:01.845Z,100453.13
2022-12-23T11:53:28.945Z,100458.19
2022-12-23T11:56:10.077Z,100461.66
2022-12-23T11:58:45.651Z,100447.69
2022-12-23T12:01:23.677Z,100433.56
2022-12-23T12:03:55.732Z,100432.78
2022-12-23T12:06:23.330Z,100435.19
2022-12-23T12:08:52.625Z,100429.94
2022-12-23T12:11:44.356Z,100424.69
2022-12-23T12:14:30.988Z,100419.63
2022-12-23T12:17:22.405Z,100416.16
2022-12-23T12:20:00.777Z,100411.75
2022-12-23T12:22:38.003Z,100405.88
2022-12-23T12:25:20.635Z,100415.38
2022-12-23T12:27:57.907Z,100414.56
2022-12-23T12:30:32.663Z,100410.13
2022-12-23T12:33:05.323Z,100397.78
2022-12-23T12:35:49.384Z,100384.88
2022-12-23T12:38:25.545Z,100378.00
2022-12-23T12:41:03.390Z,100359.78
2022-12-23T12:43:48.565Z,100357.34
2022-12-23T12:46:31.290Z,100353.13
2022-12-23T12:49:16.322Z,100343.41
2022-12-23T12:51:42.767Z,100337.34
2022-12-23T12:54:35.314Z,100326.06
2022-12-23T12:57:02.384Z,100321.59
2022-12-23T12:59:33.930Z,100316.34
2022-12-23T13:02:28.441Z,100318.16
2022-12-23T13:05:20.497Z,100308.47
2022-12-23T13:08:11.549Z,100307.47
2022-12-23T13:10:59.687Z,100295.97
2022-12-23T13:13:45.139Z,100293.34
2022-12-23T13:16:33.702Z,100297.19
2022-12-23T13:19:12.263Z,100288.34
2022-12-23T13:21:49.971Z,100292.75
2022-12-23T13:24:32.676Z,100291.34
2022-12-23T13:27:05.047Z,100291.34
2022-12-23T13:29:40.672Z,100295.78
2022-12-23T13:32:25.998Z,100290.53
2022-12-23T13:35:38.523Z,100287.06
2022-12-23T13:38:42.214Z,100279.41
2022-12-23T13:41:40.001Z,100276.97
2022-12-23T13:44:10.700Z,100278.97
2022-12-23T13:47:06.422Z,100286.22
2022-12-23T13:50:23.758Z,100283.41
2022-12-23T13:53:01.775Z,100280.78
2022-12-23T13:55:58.795Z,100259.34
2022-12-23T13:58:31.179Z,100257.72
2022-12-23T14:01:18.919Z,100241.16
2022-12-23T14:03:49.625Z,100227.41
2022-12-23T14:06:25.235Z,100229.22
2022-12-23T14:08:53.521Z,100216.28
2022-12-23T14:11:28.865Z,100203.34
2022-12-23T14:14:02.594Z,100192.84
2022-12-23T14:17:02.715Z,100195.28
2022-12-23T14:19:57.335Z,100193.28
2022-12-23T14:22:36.155Z,100197.78
2022-12-23T14:25:41.168Z,100200.44
2022-12-23T14:28:26.594Z,100204.13
2022-12-23T14:30:53.317Z,100187.34
2022-12-23T14:33:26.377Z,100181.28
2022-12-23T14:35:54.754Z,100180.69
2022-12-23T14:38:24.636Z,100190.56
2022-12-23T14:41:23.363Z,100181.44
2022-12-23T14:43:56.161Z,100189.53
2022-12-23T14:46:35.224Z,100188.88
2022-12-23T14:49:29.836Z,100196.97
2022-12-23T14:51:50.973Z,100192.69
2022-12-23T14:54:36.664Z,100209.47
2022-12-23T14:57:13.742Z,100212.72
2022-12-23T15:00:01.426Z,100205.66
2022-12-23T15:02:35.984Z,100198.75
2022-12-23T15:05:03.942Z,100195.69
2022-12-23T15:07:43.487Z,100191.47
2022-12-23T15:10:22.307Z,100192.66
2022-12-23T15:13:02.859Z,100197.09
2022-12-23T15:15:30.992Z,100192.84
2022-12-23T15:18:05.182Z,100170.41
2022-12-23T15:20:31.912Z,100174.03
2022-12-23T15:23:02.288Z,100174.25
2022-12-23T15:25:33.553Z,100165.72
2022-12-23T15:28:03.800Z,100171.34
2022-12-23T15:30:47.745Z,100166.47
2022-12-23T15:34:00.562Z,100172.75
2022-12-23T15:36:09.879Z,100163.06
2022-12-23T15:38:38.754Z,100166.47
2022-12-23T15:41:14.408Z,100168.31
2022-12-23T15:43:42.208Z,100158.00
2022-12-23T15:46:28.980Z,100174.56
2022-12-23T15:48:56.678Z,100177.63
2022-12-23T15:54:29.666Z,100163.25
2022-12-23T15:56:58.764Z,100170.31
2022-12-23T15:59:38.326Z,100184.03
2022-12-23T16:05:08.140Z,100187.75
2022-12-23T16:07:38.140Z,100180.03
2022-12-23T16:10:17.158Z,100177.41
2022-12-23T16:12:44.394Z,100197.59
2022-12-23T16:15:20.176Z,100199.84
2022-12-23T16:17:46.753Z,100191.41
2022-12-23T16:20:24.123Z,100191.59
2022-12-23T16:22:54.233Z,100196.66
2022-12-23T16:25:31.199Z,100198.47
2022-12-23T16:28:13.345Z,100183.53
2022-12-23T16:30:43.384Z,100172.59
2022-12-23T16:33:37.443Z,100172.81
2022-12-23T16:36:25.311Z,100165.94
2022-12-23T16:38:53.297Z,100164.13
2022-12-23T16:41:20.534Z,100170.97
2022-12-23T16:43:52.022Z,100187.75
2022-12-23T16:46:21.223Z,100190.97
2022-12-23T16:49:01.869Z,100184.91
2022-12-23T16:51:33.789Z,100194.44
2022-12-23T16:54:01.205Z,100186.34
2022-12-23T16:56:37.987Z,100190.41
2022-12-23T16:59:05.016Z,100192.22
2022-12-23T17:01:44.851Z,100192.03
2022-12-23T17:04:11.717Z,100193.66
2022-12-23T17:06:38.795Z,100199.72
2022-12-23T17:09:07.823Z,100200.34
2022-12-23T17:11:39.288Z,100200.34
2022-12-23T17:14:13.605Z,100210.66
2022-12-23T17:16:42.126Z,100208.00
2022-12-23T17:19:08.820Z,100207.84
2022-12-23T17:21:39.182Z,100210.47
2022-12-23T17:24:24.701Z,100198.16
2022-12-23T17:26:52.571Z,100196.09
2022-12-23T17:29:19.719Z,100205.75
2022-12-23T17:31:48.073Z,100217.91
2022-12-23T17:34:15.834Z,100210.84
2022-12-23T17:36:49.238Z,100215.91
2022-12-23T17:39:16.425Z,100210.47
2022-12-23T17:41:43.415Z,100204.41
2022-12-23T17:44:14.071Z,100199.97
2022-12-23T17:46:41.027Z,100202.22
2022-12-23T17:49:08.389Z,100202.81
2022-12-23T17:51:34.922Z,100204.44
2022-12-23T17:54:02.231Z,100203.25
2022-12-23T17:56:28.910Z,100198.44
2022-12-23T17:58:55.491Z,100204.13
2022-12-23T18:01:32.377Z,100206.53
2022-12-23T18:04:00.000Z,100205.97
2022-12-23T18:06:28.630Z,100208.22
2022-12-23T18:08:57.075Z,100213.28
2022-12-23T18:11:34.724Z,100215.31
2022-12-23T18:14:02.364Z,100222.00
2022-12-23T18:16:30.084Z,100217.56
2022-12-23T18:18:57.067Z,100219.81
2022-12-23T18:21:29.017Z,100223.03
2022-12-23T18:23:58.743Z,100229.16
2022-12-23T18:26:25.829Z,100226.97
2022-12-23T18:28:54.365Z,100231.03
2022-12-23T18:31:24.349Z,100238.53
2022-12-23T18:33:51.415Z,100241.75
2022-12-23T18:36:22.558Z,100231.88
2022-12-23T18:38:49.349Z,100234.28
2022-12-23T18:41:15.992Z,100242.59
2022-12-23T18:43:42.551Z,100251.28
2022-12-23T18:46:09.047Z,100256.97
2022-12-23T18:48:35.592Z,100252.34
2022-12-23T18:51:02.713Z,100260.22
2022-12-23T18:53:29.172Z,100267.75
2022-12-23T18:55:55.898Z,100266.94
2022-12-23T18:58:23.094Z,100280.88
2022-12-23T19:00:50.808Z,100272.78
2022-12-23T19:03:24.818Z,100263.50
2022-12-23T19:05:52.946Z,100277.47
2022-12-23T19:08:26.130Z,100282.72
2022-12-23T19:10:53.877Z,100272.41
2022-12-23T19:13:20.632Z,100278.84
2022-12-23T19:15:47.277Z,100281.69
2022-12-23T19:18:19.496Z,100275.63
2022-12-23T19:20:47.228Z,100276.22
2022-12-23T19:23:14.498Z,100277.66
2022-12-23T19:25:43.495Z,100283.56
2022-12-23T19:28:12.389Z,100278.47
2022-12-23T19:30:42.574Z,100289.19
2022-12-23T19:33:09.269Z,100287.16
2022-12-23T19:35:35.985Z,100293.44
2022-12-23T19:38:02.515Z,100300.72
2022-12-23T19:40:29.554Z,100307.59
2022-12-23T19:42:56.405Z,100305.13
2022-12-23T19:45:23.004Z,100317.09
2022-12-23T19:47:49.459Z,100319.50
2022-12-23T19:50:15.977Z,100322.16
2022-12-23T19:52:42.524Z,100320.53
2022-12-23T19:55:10.189Z,100321.34
2022-12-23T19:57:36.964Z,100328.84
2022-12-23T20:00:04.970Z,100326.22
2022-12-23T20:02:31.557Z,100335.94
2022-12-23T20:04:58.183Z,100342.00
2022-12-23T20:07:24.685Z,100356.56
2022-12-23T20:09:51.578Z,100349.50
2022-12-23T20:12:18.143Z,100352.13
2022-12-23T20:14:44.697Z,100345.84
2022-12-23T20:17:11.230Z,100351.50
2022-12-23T20:19:43.849Z,100348.69
2022-12-23T20:22:12.536Z,100357.59
2022-12-23T20:24:39.110Z,100357.59
2022-12-23T20:27:10.964Z,100361.03
2022-12-23T20:29:38.473Z,100371.34
2022-12-23T20:32:05.235Z,100373.78
2022-12-23T20:34:36.687Z,100370.16
2022-12-23T20:37:05.554Z,100379.84
2022-12-23T20:39:32.056Z,100389.34
2022-12-23T20:41:58.541Z,100393.00
2022-12-23T20:44:34.569Z,100384.91
2022-12-23T20:47:02.614Z,100391.78
2022-12-23T20:49:29.486Z,100398.88
2022-12-23T20:51:56.029Z,100399.28
2022-12-23T20:54:29.681Z,100415.06
2022-12-23T20:56:58.706Z,100411.63
2022-12-23T20:59:25.331Z,100414.25
2022-12-23T21:01:52.105Z,100432.28
2022-12-23T21:04:18.959Z,100432.28
2022-12-23T21:06:45.720Z,100448.06
2022-12-23T21:09:14.542Z,100438.16
2022-12-23T21:11:44.024Z,100439.00
2022-12-23T21:14:11.170Z,100454.78
2022-12-23T21:16:38.755Z,100451.94
2022-12-23T21:19:07.492Z,100454.78
2022-12-23T21:21:34.151Z,100447.69
2022-12-23T21:24:04.587Z,100462.66
2022-12-23T21:26:32.935Z,100459.19
2022-12-23T21:29:00.935Z,100463.84
2022-12-23T21:31:29.720Z,100465.84
2022-12-23T21:33:57.144Z,100468.09
2022-12-23T21:36:26.519Z,100472.34
2022-12-23T21:38:53.486Z,100484.50
2022-12-23T21:41:22.823Z,100484.69
2022-12-23T21:43:49.980Z,100489.94
2022-12-23T21:46:18.754Z,100492.38
2022-12-23T21:48:45.874Z,100491.59
2022-12-23T21:51:24.642Z,100489.13
2022-12-23T21:53:53.185Z,100511.97
2022-12-23T21:56:25.701Z,100497.22
2022-12-23T21:59:08.459Z,100519.44
2022-12-23T22:01:35.345Z,100520.06
2022-12-23T22:04:02.298Z,100519.06
2022-12-23T22:06:32.099Z,100518.25
2022-12-23T22:08:59.123Z,100514.00
2022-12-23T22:11:28.602Z,100521.06
2022-12-23T22:13:59.532Z,100530.16
2022-12-23T22:16:28.162Z,100513.75
2022-12-23T22:18:55.972Z,100538.78
2022-12-23T22:21:24.890Z,100552.28
2022-12-23T22:23:52.710Z,100551.84
2022-12-23T22:26:25.427Z,100554.84
2022-12-23T22:28:55.514Z,100561.47
2022-12-23T22:31:36.871Z,100566.13
2022-12-23T22:34:04.252Z,100575.84
2022-12-23T22:36:30.936Z,100577.81
2022-12-23T22:38:59.331Z,100583.88
2022-12-23T22:41:27.860Z,100589.34
2022-12-23T22:43:55.496Z,100580.81
2022-12-23T22:46:22.766Z,100592.94
2022-12-23T22:48:49.535Z,100592.34
2022-12-23T22:51:24.694Z,100596.78
2022-12-23T22:53:51.755Z,100600.38
2022-12-23T22:56:20.134Z,100602.19
2022-12-23T22:58:46.628Z,100603.22
2022-12-23T23:01:34.099Z,100614.72
2022-12-23T23:04:02.703Z,100618.97
2022-12-23T23:06:37.548Z,100616.53
2022-12-23T23:09:06.157Z,100618.97
2022-12-23T23:11:32.687Z,100629.50
2022-12-23T23:13:59.741Z,100618.78
2022-12-23T23:16:26.599Z,100630.13
2022-12-23T23:18:53.995Z,100628.47
2022-12-23T23:21:21.474Z,100635.19
2022-12-23T23:23:49.092Z,100631.91
2022-12-23T23:26:16.513Z,100631.91
2022-12-23T23:28:43.732Z,100633.75
2022-12-23T23:33:57.987Z,100635.38
2022-12-23T23:36:25.060Z,100637.19
2022-12-23T23:38:51.685Z,100642.06
2022-12-23T23:41:22.899Z,100635.66
2022-12-23T23:43:50.622Z,100654.03
2022-12-23T23:46:17.268Z,100657.84
2022-12-23T23:48:43.952Z,100660.84
2022-12-23T23:51:10.453Z,100671.19
2022-12-23T23:53:37.024Z,100674.81
2022-12-23T23:56:06.003Z,100672.19
2022-12-23T23:58:33.613Z,100670.53
